Time;durP1;ratioP1;P1;durP2;ratioP2;P2;SDS_P1;SDS_P2;PMS_P1;PMS_P2;Temp;Humidity;BMP_temperature;BMP_pressure;BME280_temperature;BME280_humidity;BME280_pressure;Samples;Min_cycle;Max_cycle;Signal;HPM_P1;HPM_P2
2022/03/03 00:01:09;;;;;;;;;70.00;53.00;;;;;6.99;35.06;99111.34;6229268;27;97257;-66
2022/03/03 00:04:14;;;;;;;;;71.00;54.60;;;;;6.98;34.97;99115.88;6234337;27;97220;-64
2022/03/03 00:07:17;;;;;;;;;72.33;53.00;;;;;6.87;35.29;99117.22;6232916;27;98399;-66
2022/03/03 00:10:21;;;;;;;;;72.50;57.25;;;;;6.90;35.22;99107.94;6207531;28;97719;-66
2022/03/03 00:13:25;;;;;;;;;74.00;57.00;;;;;6.87;35.06;99097.63;6203702;28;98556;-65
2022/03/03 00:16:28;;;;;;;;;70.75;53.00;;;;;6.92;35.05;99090.69;6221261;27;97543;-63
2022/03/03 00:19:33;;;;;;;;;69.40;52.40;;;;;6.93;35.20;99091.50;6204253;28;98000;-65
2022/03/03 00:22:36;;;;;;;;;69.20;52.00;;;;;6.96;34.85;99081.22;6213535;28;97613;-64
2022/03/03 00:25:42;;;;;;;;;70.00;52.75;;;;;6.96;35.20;99083.91;6243292;27;99637;-64
2022/03/03 00:28:45;;;;;;;;;65.20;50.00;;;;;6.97;34.97;99079.38;6251806;27;97651;-63
2022/03/03 00:31:48;;;;;;;;;66.20;49.40;;;;;6.99;34.58;99077.31;6254799;27;97386;-65
2022/03/03 00:34:57;;;;;;;;;65.60;49.00;;;;;7.07;34.79;99079.03;6238843;27;99096;-65
2022/03/03 00:38:01;;;;;;;;;64.40;49.00;;;;;7.12;34.46;99081.97;6263510;27;96494;-64
2022/03/03 00:41:05;;;;;;;;;65.00;50.00;;;;;7.14;34.48;99083.41;6263156;27;98453;-63
2022/03/03 00:44:09;;;;;;;;;62.00;49.00;;;;;7.17;34.63;99076.84;6241308;27;97481;-66
2022/03/03 00:47:13;;;;;;;;;66.80;50.00;;;;;7.22;34.84;99077.91;6241508;27;98011;-63
2022/03/03 00:50:17;;;;;;;;;67.00;50.00;;;;;7.24;34.74;99066.97;6245287;27;96691;-64
2022/03/03 00:53:23;;;;;;;;;66.60;51.00;;;;;7.23;34.61;99070.72;6262775;27;96498;-64
2022/03/03 00:56:26;;;;;;;;;67.00;50.50;;;;;7.28;34.62;99062.91;6239985;27;99381;-63
2022/03/03 00:59:29;;;;;;;;;65.00;50.00;;;;;7.32;34.34;99058.78;6261517;27;97537;-65
2022/03/03 01:02:33;;;;;;;;;66.20;49.60;;;;;7.34;34.57;99052.19;6261576;27;97653;-65
2022/03/03 01:05:39;;;;;;;;;65.40;49.00;;;;;7.36;34.32;99055.53;6262488;27;96757;-63
2022/03/03 01:08:42;;;;;;;;;59.75;46.00;;;;;7.38;34.12;99049.94;6243553;27;98360;-63
2022/03/03 01:11:46;;;;;;;;;64.40;48.00;;;;;7.42;33.92;99048.53;6245358;27;98451;-63
2022/03/03 01:14:49;;;;;;;;;62.20;48.00;;;;;7.40;33.85;99045.22;6262495;27;97407;-64
2022/03/03 01:17:53;;;;;;;;;61.67;46.33;;;;;7.43;33.69;99047.50;6263517;27;97569;-64
2022/03/03 01:20:58;;;;;;;;;64.00;49.00;;;;;7.45;33.78;99041.94;6264023;27;96478;-65
2022/03/03 01:24:01;;;;;;;;;66.80;48.00;;;;;7.45;33.64;99050.00;6244233;27;98812;-66
2022/03/03 01:27:05;;;;;;;;;64.80;48.00;;;;;7.42;33.70;99047.72;6260820;27;98066;-63
2022/03/03 01:30:10;;;;;;;;;64.40;49.00;;;;;7.43;33.41;99049.38;6243328;27;97033;-63
2022/03/03 01:33:13;;;;;;;;;65.00;49.00;;;;;7.42;33.79;99039.66;6258754;27;97515;-64
2022/03/03 01:36:20;;;;;;;;;59.20;46.00;;;;;7.41;33.78;99036.16;6259643;27;96924;-63
2022/03/03 01:39:23;;;;;;;;;65.00;50.00;;;;;7.43;33.80;99039.44;6262610;27;96945;-64
2022/03/03 01:42:29;;;;;;;;;64.00;48.00;;;;;7.36;34.13;99031.38;6263891;27;97374;-64
2022/03/03 01:45:32;;;;;;;;;67.40;51.00;;;;;7.38;33.91;99031.16;6261916;27;96839;-65
2022/03/03 01:48:35;;;;;;;;;69.00;51.00;;;;;7.30;34.18;99024.13;6261011;27;97359;-64
2022/03/03 01:51:40;;;;;;;;;69.00;52.00;;;;;7.35;34.34;99023.53;6260998;27;97534;-65
2022/03/03 01:54:44;;;;;;;;;68.75;52.00;;;;;7.16;34.26;99000.94;6260764;27;97214;-64
2022/03/03 01:57:50;;;;;;;;;67.00;52.00;;;;;7.26;34.34;99017.50;6260226;27;97525;-65
2022/03/03 02:00:53;;;;;;;;;68.00;52.00;;;;;7.25;34.46;99021.19;6257402;27;98047;-65
2022/03/03 02:03:56;;;;;;;;;68.80;52.00;;;;;7.21;34.61;99013.75;6257842;27;97466;-64
2022/03/03 02:07:01;;;;;;;;;73.60;54.60;;;;;7.20;34.47;99026.31;6255246;27;97410;-65
2022/03/03 02:10:06;;;;;;;;;70.50;52.00;;;;;7.19;34.63;99015.78;6262476;27;97194;-65
2022/03/03 02:13:10;;;;;;;;;68.00;52.00;;;;;7.14;35.01;99031.63;6263171;27;96470;-66
2022/03/03 02:16:13;;;;;;;;;69.60;52.00;;;;;7.18;34.86;99022.19;6261068;27;97415;-64
2022/03/03 02:19:17;;;;;;;;;71.50;55.50;;;;;7.17;34.95;99017.84;6244087;27;97342;-64
2022/03/03 02:22:24;;;;;;;;;72.20;52.80;;;;;7.04;35.55;99015.91;6244482;27;97372;-64
2022/03/03 02:25:27;;;;;;;;;70.20;53.40;;;;;6.96;35.61;99011.53;6241888;27;97966;-63
2022/03/03 02:28:31;;;;;;;;;70.60;53.00;;;;;6.97;35.63;99017.72;6261285;27;98046;-63
2022/03/03 02:31:34;;;;;;;;;71.25;54.75;;;;;6.91;35.85;99005.94;6238370;27;97673;-65
2022/03/03 02:34:37;;;;;;;;;72.50;55.00;;;;;6.88;36.11;99003.66;6242517;27;97346;-65
2022/03/03 02:37:43;;;;;;;;;71.40;57.00;;;;;6.83;36.11;99003.41;6261453;27;97410;-63
2022/03/03 02:40:47;;;;;;;;;75.20;57.60;;;;;6.78;36.52;98999.66;6261538;27;97462;-63
2022/03/03 02:43:51;;;;;;;;;71.80;53.60;;;;;6.81;36.42;98993.88;6243061;27;96921;-65
2022/03/03 02:46:54;;;;;;;;;75.00;60.00;;;;;6.81;36.44;98991.22;6259668;27;97670;-64
2022/03/03 02:49:57;;;;;;;;;72.60;58.00;;;;;6.77;36.65;98995.31;6219126;28;97771;-63
2022/03/03 02:53:02;;;;;;;;;75.50;59.00;;;;;6.68;36.87;98996.47;6255783;27;98099;-66
2022/03/03 02:56:07;;;;;;;;;80.60;66.60;;;;;6.60;37.01;98988.59;6260683;27;97466;-65
2022/03/03 02:59:11;;;;;;;;;81.00;65.00;;;;;6.55;37.27;98982.97;6225737;27;96893;-62
2022/03/03 03:02:14;;;;;;;;;73.80;61.80;;;;;6.53;37.57;98986.69;6223105;27;98369;-63
2022/03/03 03:05:18;;;;;;;;;75.80;60.60;;;;;6.47;37.58;98981.25;6241376;27;98371;-64
2022/03/03 03:08:23;;;;;;;;;79.20;65.00;;;;;6.42;37.75;98973.81;6260532;27;96706;-64
2022/03/03 03:11:26;;;;;;;;;76.60;63.00;;;;;6.37;37.99;98984.25;6252279;27;97134;-63
2022/03/03 03:14:30;;;;;;;;;75.75;59.00;;;;;6.35;37.96;98974.78;6256189;27;97557;-65
2022/03/03 03:17:33;;;;;;;;;77.60;62.60;;;;;6.36;37.83;98963.84;6242852;27;98382;-63
2022/03/03 03:20:37;;;;;;;;;82.00;65.40;;;;;6.36;37.90;98968.38;6259969;27;97225;-64
2022/03/03 03:23:43;;;;;;;;;79.00;68.80;;;;;6.26;38.28;98966.03;6261327;27;97460;-63
2022/03/03 03:26:46;;;;;;;;;78.20;65.00;;;;;6.21;38.16;98973.81;6259051;27;97013;-64
2022/03/03 03:29:50;;;;;;;;;79.75;68.75;;;;;6.20;38.29;98979.38;6261085;27;97463;-65
2022/03/03 03:32:53;;;;;;;;;82.60;67.00;;;;;6.22;38.16;98975.47;6241027;27;98368;-63
2022/03/03 03:35:56;;;;;;;;;79.40;66.60;;;;;6.24;37.99;98977.97;6261156;27;96704;-66
2022/03/03 03:39:01;;;;;;;;;79.25;65.00;;;;;6.20;37.89;98974.00;6240839;27;97438;-64
2022/03/03 03:42:05;;;;;;;;;78.50;65.25;;;;;6.21;38.10;98975.66;6225229;27;97714;-64
2022/03/03 03:45:10;;;;;;;;;80.60;67.60;;;;;6.17;38.18;98982.41;6240386;27;98712;-64
2022/03/03 03:48:13;;;;;;;;;86.75;71.00;;;;;6.20;38.08;98977.53;6241570;27;97090;-64
2022/03/03 03:51:16;;;;;;;;;83.80;69.80;;;;;6.16;38.09;98976.22;6259008;27;96817;-65
2022/03/03 03:54:21;;;;;;;;;87.00;71.40;;;;;6.17;38.13;98980.56;6257365;27;97268;-65
2022/03/03 03:57:25;;;;;;;;;81.40;68.60;;;;;6.15;38.35;98992.50;6239782;27;96914;-65
2022/03/03 04:00:29;;;;;;;;;83.80;71.40;;;;;6.00;38.48;98985.34;6259815;27;97624;-65
2022/03/03 04:03:32;;;;;;;;;84.25;71.75;;;;;5.97;38.77;98985.72;6261847;27;97661;-64
2022/03/03 04:06:36;;;;;;;;;84.60;72.40;;;;;6.01;38.71;98978.97;6237710;27;96945;-63
2022/03/03 04:09:41;;;;;;;;;83.75;69.50;;;;;5.95;38.97;98968.22;6258185;27;96816;-64
2022/03/03 04:12:44;;;;;;;;;87.60;75.00;;;;;5.92;38.89;98963.22;6264995;27;96571;-64
2022/03/03 04:15:48;;;;;;;;;90.20;76.60;;;;;5.99;39.06;98964.13;6264267;27;97295;-64
2022/03/03 04:18:51;;;;;;;;;94.00;77.60;;;;;6.01;38.78;98952.19;6263990;27;97811;-63
2022/03/03 04:21:55;;;;;;;;;89.80;76.60;;;;;5.96;39.21;98956.50;6253239;27;96543;-64
2022/03/03 04:25:00;;;;;;;;;94.60;78.00;;;;;5.91;39.12;98938.31;6263033;27;96801;-65
2022/03/03 04:28:04;;;;;;;;;87.40;75.00;;;;;5.86;39.39;98939.88;6246843;27;97000;-64
2022/03/03 04:31:08;;;;;;;;;89.60;73.40;;;;;5.89;39.07;98950.22;6243245;27;97364;-63
2022/03/03 04:34:11;;;;;;;;;91.00;74.60;;;;;5.87;39.04;98934.34;6251192;27;97036;-63
2022/03/03 04:37:14;;;;;;;;;86.00;73.00;;;;;5.82;39.03;98935.91;6246186;27;97330;-63
2022/03/03 04:40:19;;;;;;;;;88.60;73.60;;;;;5.81;38.87;98934.28;6263817;27;96385;-62
2022/03/03 04:43:22;;;;;;;;;85.20;73.00;;;;;5.81;38.55;98939.63;6264031;27;98476;-64
2022/03/03 04:46:26;;;;;;;;;93.80;75.00;;;;;5.79;38.45;98937.13;6263212;27;97418;-64
2022/03/03 04:49:32;;;;;;;;;88.40;73.80;;;;;5.76;38.71;98934.03;6264596;27;97394;-63
2022/03/03 04:52:36;;;;;;;;;85.00;73.20;;;;;5.76;38.70;98940.19;6246322;27;96754;-64
2022/03/03 04:55:41;;;;;;;;;88.60;74.00;;;;;5.60;38.72;98935.91;6244039;27;97058;-63
2022/03/03 04:58:44;;;;;;;;;92.40;73.00;;;;;5.68;38.67;98932.28;6260894;27;97377;-63
2022/03/03 05:01:48;;;;;;;;;81.00;68.33;;;;;5.61;38.66;98929.56;6258236;27;96861;-64
2022/03/03 05:04:52;;;;;;;;;86.25;73.50;;;;;5.62;38.42;98925.00;6238432;27;99944;-65
2022/03/03 05:07:55;;;;;;;;;89.50;75.00;;;;;5.54;38.80;98922.44;6254978;27;99573;-63
2022/03/03 05:11:00;;;;;;;;;84.25;70.75;;;;;5.43;38.87;98922.94;6243204;27;97479;-63
2022/03/03 05:14:03;;;;;;;;;79.00;68.80;;;;;5.47;38.94;98918.91;6263617;27;97064;-64
2022/03/03 05:17:07;;;;;;;;;80.00;67.60;;;;;5.46;39.06;98918.06;6245906;27;96798;-63
2022/03/03 05:20:12;;;;;;;;;80.80;68.40;;;;;5.53;38.54;98923.47;6263740;27;96615;-63
2022/03/03 05:23:15;;;;;;;;;80.50;66.50;;;;;5.55;38.66;98921.44;6263238;27;96441;-64
2022/03/03 05:26:20;;;;;;;;;85.40;68.40;;;;;5.60;38.55;98924.38;6261559;27;97602;-63
2022/03/03 05:29:23;;;;;;;;;79.20;63.20;;;;;5.56;38.36;98917.75;6246106;27;97488;-65
2022/03/03 05:32:27;;;;;;;;;79.20;65.40;;;;;5.51;38.59;98914.81;6256433;27;97482;-63
2022/03/03 05:35:30;;;;;;;;;79.00;66.60;;;;;5.63;38.46;98930.16;6260551;27;96984;-65
2022/03/03 05:38:35;;;;;;;;;78.00;64.00;;;;;5.71;38.10;98921.22;6260919;27;97614;-64
2022/03/03 05:41:40;;;;;;;;;79.00;67.25;;;;;5.76;37.94;98926.81;6254212;27;97242;-65
2022/03/03 05:44:44;;;;;;;;;81.00;67.40;;;;;5.76;38.19;98929.50;6267829;27;98381;-64
2022/03/03 05:47:47;;;;;;;;;78.80;67.80;;;;;5.70;37.98;98934.78;6249482;27;96545;-64
2022/03/03 05:50:51;;;;;;;;;81.40;68.20;;;;;5.76;37.99;98926.81;6243532;27;96842;-64
2022/03/03 05:53:54;;;;;;;;;79.20;65.20;;;;;5.77;38.03;98930.31;6255923;27;98015;-63
2022/03/03 05:57:02;;;;;;;;;76.80;65.00;;;;;5.75;38.01;98929.69;6252458;27;96819;-64
2022/03/03 06:00:08;;;;;;;;;80.00;69.40;;;;;5.72;38.11;98936.22;6266454;27;96972;-63
2022/03/03 06:03:17;;;;;;;;;80.40;67.00;;;;;5.70;37.97;98927.56;6242729;27;97745;-63
2022/03/03 06:06:26;;;;;;;;;81.40;70.40;;;;;5.72;37.88;98925.53;6240666;27;98714;-65
2022/03/03 06:09:32;;;;;;;;;85.00;70.60;;;;;5.80;37.59;98925.44;6259920;27;96925;-65
2022/03/03 06:12:47;;;;;;;;;80.00;65.75;;;;;5.86;37.61;98924.66;6241787;27;97415;-64
2022/03/03 06:15:51;;;;;;;;;79.50;68.00;;;;;5.98;37.60;98917.81;6259151;27;97442;-65
2022/03/03 06:18:54;;;;;;;;;83.00;70.40;;;;;6.05;37.80;98917.88;6238735;27;99071;-64
2022/03/03 06:21:58;;;;;;;;;82.50;69.00;;;;;6.15;37.55;98939.78;6259619;27;97169;-63
2022/03/03 06:25:01;;;;;;;;;87.20;70.80;;;;;6.22;37.44;98929.97;6234345;27;97984;-64
2022/03/03 06:28:06;;;;;;;;;80.60;68.20;;;;;6.45;37.17;98933.22;6242687;27;99631;-65
2022/03/03 06:31:13;;;;;;;;;88.80;76.60;;;;;6.59;36.89;98914.59;6261138;27;97520;-64
2022/03/03 06:34:17;;;;;;;;;86.00;72.33;;;;;6.70;36.88;98928.25;6260835;27;97441;-64
2022/03/03 06:37:20;;;;;;;;;82.20;71.00;;;;;6.87;36.36;98924.28;6245656;27;97383;-64
2022/03/03 06:40:23;;;;;;;;;87.80;71.40;;;;;7.27;35.82;98922.63;6260713;27;97942;-64
2022/03/03 06:43:30;;;;;;;;;86.00;74.60;;;;;7.63;35.01;98924.19;6251090;27;97862;-63
2022/03/03 06:46:34;;;;;;;;;93.20;76.00;;;;;8.16;34.24;98930.50;6251796;27;97324;-65
2022/03/03 06:49:37;;;;;;;;;84.40;73.60;;;;;8.78;33.12;98918.53;6229209;27;97441;-66
2022/03/03 06:52:41;;;;;;;;;87.00;75.00;;;;;9.58;31.97;98916.19;6248343;27;97618;-67
2022/03/03 06:55:45;;;;;;;;;93.33;76.33;;;;;10.32;30.63;98923.63;6256934;27;98400;-65
2022/03/03 06:58:53;;;;;;;;;90.00;75.60;;;;;10.51;29.96;98916.41;6259341;27;96807;-65
2022/03/03 07:01:59;;;;;;;;;89.25;75.00;;;;;10.39;30.36;98927.09;6259310;27;96542;-66
2022/03/03 07:05:03;;;;;;;;;89.60;75.60;;;;;10.21;30.49;98915.44;6260042;27;96733;-64
2022/03/03 07:08:07;;;;;;;;;93.00;75.00;;;;;10.51;30.03;98923.66;6242072;27;97489;-65
2022/03/03 07:11:11;;;;;;;;;95.00;76.80;;;;;10.61;29.98;98924.00;6257802;27;97578;-64
2022/03/03 07:14:16;;;;;;;;;90.80;77.00;;;;;10.89;29.56;98920.84;6234792;27;97297;-64
2022/03/03 07:17:31;;;;;;;;;91.60;78.40;;;;;12.06;27.62;98906.97;6260068;27;97580;-64
2022/03/03 07:20:41;;;;;;;;;84.20;71.80;;;;;12.84;26.56;98912.13;6255960;27;97520;-63
2022/03/03 07:23:54;;;;;;;;;86.60;73.40;;;;;13.41;26.04;98908.53;6222509;27;97320;-63
2022/03/03 07:27:00;;;;;;;;;85.75;75.00;;;;;14.82;24.10;98906.75;6242496;27;97763;-63
2022/03/03 07:30:08;;;;;;;;;84.20;71.00;;;;;15.22;23.64;98922.00;6259918;27;97059;-63
2022/03/03 07:33:14;;;;;;;;;84.40;73.20;;;;;14.98;24.05;98908.63;6260282;27;96808;-63
2022/03/03 07:36:23;;;;;;;;;83.00;72.60;;;;;14.89;23.75;98906.59;6242521;27;98388;-64
2022/03/03 07:39:31;;;;;;;;;86.00;72.20;;;;;15.72;22.77;98910.97;6230210;27;97402;-63
2022/03/03 07:42:35;;;;;;;;;87.60;74.20;;;;;16.98;21.61;98900.44;6249203;27;97276;-65
2022/03/03 07:45:43;;;;;;;;;87.50;72.50;;;;;18.25;20.01;98897.16;6261354;27;97187;-61
2022/03/03 07:48:47;;;;;;;;;85.25;73.00;;;;;19.41;18.95;98897.03;6246157;27;96622;-66
2022/03/03 07:51:50;;;;;;;;;89.60;74.80;;;;;20.01;18.22;98897.06;6266424;27;97015;-65
2022/03/03 07:54:54;;;;;;;;;89.00;73.00;;;;;20.68;18.01;98893.59;6252495;27;97526;-61
2022/03/03 07:57:59;;;;;;;;;86.40;75.00;;;;;21.12;17.22;98891.53;6247362;27;97768;-64
2022/03/03 08:01:06;;;;;;;;;87.00;75.00;;;;;21.48;16.62;98893.91;6262531;27;97028;-62
2022/03/03 08:04:14;;;;;;;;;85.40;72.20;;;;;22.21;16.59;98905.31;6245783;27;98621;-64
2022/03/03 08:07:19;;;;;;;;;83.40;71.00;;;;;22.67;15.61;98901.84;6264412;27;97029;-64
2022/03/03 08:10:25;;;;;;;;;82.60;73.00;;;;;22.96;15.36;98896.97;6270960;27;97770;-65
2022/03/03 08:13:29;;;;;;;;;86.75;76.00;;;;;23.10;15.70;98895.06;6264039;27;97578;-64
2022/03/03 08:16:36;;;;;;;;;88.60;72.60;;;;;23.47;15.30;98896.03;6263238;27;97015;-65
2022/03/03 08:19:39;;;;;;;;;79.20;67.00;;;;;23.98;15.27;98901.28;6246568;27;97352;-63
2022/03/03 08:22:43;;;;;;;;;78.75;67.75;;;;;23.98;15.04;98893.84;6264642;27;97460;-64
2022/03/03 08:25:47;;;;;;;;;76.00;63.60;;;;;23.60;15.27;98896.00;6263300;27;98071;-64
2022/03/03 08:28:51;;;;;;;;;72.00;55.60;;;;;22.53;15.42;98890.78;6228214;27;97063;-65
2022/03/03 08:31:57;;;;;;;;;72.00;57.25;;;;;21.05;16.42;98892.97;6264528;27;97429;-65
2022/03/03 08:35:07;;;;;;;;;71.00;54.00;;;;;19.78;17.60;98901.31;6229541;27;97759;-64
2022/03/03 08:38:22;;;;;;;;;69.50;53.50;;;;;18.66;18.75;98883.56;6265066;27;96728;-64
2022/03/03 08:41:25;;;;;;;;;70.20;55.00;;;;;17.52;19.76;98890.09;6261821;27;96694;-64
2022/03/03 08:44:38;;;;;;;;;71.00;55.00;;;;;16.62;20.58;98878.41;6258526;27;96926;-75
2022/03/03 08:47:44;;;;;;;;;68.20;52.00;;;;;16.17;21.14;98878.03;6264473;27;97217;-69
2022/03/03 08:50:51;;;;;;;;;68.80;51.40;;;;;16.00;20.99;98873.50;6264866;27;97062;-66
2022/03/03 08:53:55;;;;;;;;;71.00;53.00;;;;;16.03;21.61;98886.56;6260299;27;97021;-63
2022/03/03 08:56:58;;;;;;;;;70.00;53.00;;;;;16.12;21.43;98886.13;6258891;27;97348;-65
2022/03/03 09:00:02;;;;;;;;;72.80;54.80;;;;;16.69;21.13;98870.84;6260087;27;96760;-66
2022/03/03 09:03:08;;;;;;;;;72.20;55.00;;;;;18.09;19.97;98860.84;6253991;27;97411;-65
2022/03/03 09:06:14;;;;;;;;;72.80;55.60;;;;;18.87;19.06;98864.13;6260371;27;97422;-66
2022/03/03 09:09:17;;;;;;;;;68.40;53.00;;;;;19.87;18.17;98859.41;6256723;27;97903;-64
2022/03/03 09:12:21;;;;;;;;;65.60;51.40;;;;;20.21;17.68;98859.44;6259562;27;97300;-65
2022/03/03 09:15:25;;;;;;;;;67.00;52.00;;;;;20.75;16.98;98861.22;6242151;27;98224;-65
2022/03/03 09:18:31;;;;;;;;;66.25;51.50;;;;;20.70;17.17;98862.06;6261397;27;97515;-64
2022/03/03 09:21:35;;;;;;;;;65.20;52.00;;;;;20.33;17.43;98861.81;6224126;27;98421;-63
2022/03/03 09:24:38;;;;;;;;;67.00;50.00;;;;;20.39;17.05;98860.69;6261990;27;96572;-63
2022/03/03 09:27:41;;;;;;;;;62.00;47.00;;;;;21.25;16.44;98851.69;6261280;27;97696;-66
2022/03/03 09:30:44;;;;;;;;;63.50;50.00;;;;;21.91;15.91;98859.03;6260475;27;97101;-66
2022/03/03 09:33:50;;;;;;;;;62.00;48.00;;;;;22.34;15.62;98848.78;6243831;27;97625;-65
2022/03/03 09:36:54;;;;;;;;;63.50;49.00;;;;;22.87;15.41;98847.34;6262299;27;97410;-65
2022/03/03 09:39:57;;;;;;;;;52.40;43.60;;;;;23.30;15.00;98847.91;6262029;27;97228;-63
2022/03/03 09:43:04;;;;;;;;;55.20;42.80;;;;;23.65;14.48;98846.38;6248308;27;99710;-66
2022/03/03 09:46:07;;;;;;;;;53.40;42.40;;;;;23.90;13.81;98845.00;6247797;27;97483;-65
2022/03/03 09:49:12;;;;;;;;;55.00;43.00;;;;;24.40;13.98;98839.44;6262897;27;97107;-65
2022/03/03 09:52:17;;;;;;;;;54.80;43.80;;;;;24.94;13.32;98836.41;6259113;27;97413;-65
2022/03/03 09:55:22;;;;;;;;;56.20;44.00;;;;;25.30;13.06;98835.44;6250699;27;98026;-65
2022/03/03 09:58:25;;;;;;;;;52.40;42.40;;;;;25.60;12.48;98831.00;6264327;27;96717;-65
2022/03/03 10:01:28;;;;;;;;;46.60;38.00;;;;;25.58;12.31;98834.09;6241180;27;97260;-63
2022/03/03 10:04:34;;;;;;;;;50.20;40.20;;;;;24.95;12.98;98832.53;6261214;27;97422;-64
2022/03/03 10:07:37;;;;;;;;;51.00;41.00;;;;;24.42;13.59;98832.50;6261235;27;97419;-63
2022/03/03 10:10:43;;;;;;;;;53.50;42.00;;;;;23.83;14.18;98836.38;6246904;27;97756;-65
2022/03/03 10:13:48;;;;;;;;;53.00;44.00;;;;;23.27;14.17;98823.75;6267116;27;97581;-64
2022/03/03 10:16:52;;;;;;;;;53.00;43.00;;;;;22.79;15.12;98825.25;6266675;27;97530;-63
2022/03/03 10:20:16;;;;;;;;;55.25;44.00;;;;;22.50;14.96;98817.22;6267375;27;97521;-62
2022/03/03 10:23:24;;;;;;;;;55.00;42.00;;;;;22.01;15.53;98823.22;6269993;27;96359;-63
2022/03/03 10:26:39;;;;;;;;;54.00;41.40;;;;;21.25;15.52;98815.22;6272700;27;98096;-64
2022/03/03 10:29:48;;;;;;;;;52.00;41.00;;;;;20.64;16.32;98813.09;6272099;27;97704;-63
2022/03/03 10:32:51;;;;;;;;;51.80;41.00;;;;;19.95;16.38;98819.66;6243991;27;97437;-61
2022/03/03 10:36:01;;;;;;;;;49.50;40.00;;;;;19.51;17.35;98819.66;6222024;27;98375;-63
2022/03/03 10:39:06;;;;;;;;;49.25;40.00;;;;;19.11;17.35;98822.56;6262716;27;97427;-63
2022/03/03 10:42:13;;;;;;;;;51.50;41.00;;;;;20.02;16.91;98811.97;6246098;27;99522;-62
2022/03/03 10:45:19;;;;;;;;;50.00;40.40;;;;;20.36;17.18;98809.25;6259357;27;97122;-62
2022/03/03 10:48:24;;;;;;;;;51.60;41.00;;;;;20.56;16.46;98813.72;6261814;27;97416;-65
2022/03/03 10:51:32;;;;;;;;;52.00;41.00;;;;;20.58;16.05;98809.59;6248328;27;96728;-65
2022/03/03 10:54:49;;;;;;;;;53.00;41.00;;;;;20.90;16.03;98806.25;6265902;27;97080;-64
2022/03/03 10:57:56;;;;;;;;;54.00;41.00;;;;;21.38;15.55;98796.09;6277453;27;97255;-63
2022/03/03 11:00:59;;;;;;;;;53.00;42.00;;;;;22.04;15.19;98795.16;6260221;27;97342;-63
2022/03/03 11:04:05;;;;;;;;;53.40;42.20;;;;;22.37;14.66;98785.84;6266629;27;97470;-63
2022/03/03 11:07:11;;;;;;;;;50.00;40.00;;;;;22.80;14.72;98778.22;6262123;27;98133;-64
2022/03/03 11:10:17;;;;;;;;;52.00;41.00;;;;;23.15;14.67;98782.22;6262060;27;97150;-63
2022/03/03 11:13:21;;;;;;;;;53.00;41.60;;;;;23.47;14.39;98780.47;6259053;27;97476;-63
2022/03/03 11:16:26;;;;;;;;;54.20;42.00;;;;;23.98;14.14;98775.44;6260074;27;98213;-64
2022/03/03 11:19:29;;;;;;;;;54.75;41.00;;;;;24.30;13.56;98773.56;6255708;27;96653;-63
2022/03/03 11:22:34;;;;;;;;;55.00;41.40;;;;;24.33;13.28;98768.28;6256952;27;98448;-65
2022/03/03 11:25:38;;;;;;;;;55.00;44.00;;;;;24.28;13.44;98768.41;6259231;27;97474;-64
2022/03/03 11:28:41;;;;;;;;;55.60;44.00;;;;;24.13;13.78;98766.00;6254405;27;97486;-64
2022/03/03 11:31:46;;;;;;;;;52.00;43.00;;;;;24.35;13.69;98762.41;6256798;27;99700;-62
2022/03/03 11:34:49;;;;;;;;;54.20;41.60;;;;;24.54;13.51;98766.59;6251204;27;96665;-63
2022/03/03 11:37:54;;;;;;;;;56.00;44.00;;;;;24.70;13.16;98761.50;6257740;27;96943;-63
2022/03/03 11:40:59;;;;;;;;;55.80;44.00;;;;;24.50;13.23;98760.09;6257897;27;97844;-65
2022/03/03 11:44:04;;;;;;;;;53.00;42.00;;;;;24.48;13.07;98764.31;6259136;27;96965;-64
2022/03/03 11:47:18;;;;;;;;;56.00;43.75;;;;;24.70;13.54;98750.47;6256548;27;97456;-66
2022/03/03 11:50:25;;;;;;;;;48.40;39.60;;;;;24.72;13.31;98742.69;6233303;27;97950;-66
2022/03/03 11:53:30;;;;;;;;;49.00;40.25;;;;;24.58;12.88;98737.25;6259296;27;97258;-64
2022/03/03 11:56:33;;;;;;;;;48.20;40.00;;;;;24.66;12.64;98732.94;6251762;27;99538;-64
2022/03/03 11:59:39;;;;;;;;;43.60;35.00;;;;;24.56;12.05;98735.97;6259515;27;96877;-65
2022/03/03 12:02:54;;;;;;;;;35.50;30.00;;;;;24.55;11.43;98729.63;6255463;27;97473;-64
2022/03/03 12:06:04;;;;;;;;;38.00;32.60;;;;;24.76;11.34;98721.63;6228755;27;97745;-66
2022/03/03 12:09:26;;;;;;;;;34.00;30.00;;;;;24.92;10.99;98722.06;6239978;27;97049;-66
2022/03/03 12:12:31;;;;;;;;;35.20;31.00;;;;;25.06;11.37;98716.41;6257207;27;97220;-64
2022/03/03 12:15:40;;;;;;;;;39.40;32.60;;;;;25.05;11.10;98718.34;6254390;27;97731;-64
2022/03/03 12:18:46;;;;;;;;;35.40;31.00;;;;;24.85;11.11;98708.69;6255360;27;98533;-63
2022/03/03 12:21:50;;;;;;;;;31.40;29.00;;;;;24.67;11.36;98707.00;6235815;27;97737;-65
2022/03/03 12:24:54;;;;;;;;;34.40;30.00;;;;;24.33;11.35;98707.66;6258205;27;97897;-65
2022/03/03 12:28:17;;;;;;;;;35.40;31.00;;;;;23.63;11.96;98710.19;6257647;27;97411;-64
2022/03/03 12:31:24;;;;;;;;;34.60;30.00;;;;;23.00;12.34;98705.53;6241244;27;97255;-64
2022/03/03 12:34:27;;;;;;;;;35.67;30.67;;;;;22.29;12.51;98704.13;6252072;27;97859;-65
2022/03/03 12:37:32;;;;;;;;;36.20;29.20;;;;;21.73;13.37;98706.19;6261139;27;96759;-62
2022/03/03 12:40:37;;;;;;;;;34.40;30.00;;;;;21.26;13.22;98699.72;6245630;27;97358;-62
2022/03/03 12:43:42;;;;;;;;;35.00;30.00;;;;;20.84;13.74;98699.72;6254198;27;97000;-62
2022/03/03 12:46:46;;;;;;;;;32.40;30.00;;;;;20.38;13.60;98694.75;6264595;27;97974;-63
2022/03/03 12:49:50;;;;;;;;;32.25;27.25;;;;;19.80;14.19;98693.91;6246319;27;98104;-64
2022/03/03 12:52:58;;;;;;;;;45.00;35.00;;;;;19.30;15.77;98698.63;6263978;27;97465;-63
2022/03/03 12:56:05;;;;;;;;;41.00;34.50;;;;;19.06;16.42;98707.81;6245988;27;96710;-61
2022/03/03 12:59:11;;;;;;;;;51.00;41.00;;;;;18.84;17.57;98710.91;6247169;27;96742;-63
2022/03/03 13:02:15;;;;;;;;;51.25;40.50;;;;;18.60;17.99;98702.53;6262131;27;97325;-63
2022/03/03 13:05:29;;;;;;;;;52.60;40.00;;;;;18.50;18.14;98695.16;6245970;27;99495;-62
2022/03/03 13:08:35;;;;;;;;;47.80;39.00;;;;;18.40;17.54;98694.34;6264599;27;96668;-62
2022/03/03 13:11:40;;;;;;;;;50.40;40.00;;;;;18.06;18.18;98694.16;6263555;27;96397;-62
2022/03/03 13:14:44;;;;;;;;;49.00;38.60;;;;;17.64;18.57;98695.25;6245143;27;98398;-62
2022/03/03 13:17:57;;;;;;;;;49.80;40.20;;;;;17.41;18.30;98679.38;6244757;27;99473;-61
2022/03/03 13:21:02;;;;;;;;;49.50;39.50;;;;;17.25;18.84;98691.38;6254596;27;97813;-63
2022/03/03 13:24:09;;;;;;;;;50.00;39.40;;;;;17.01;18.88;98691.00;6228143;27;98706;-62
2022/03/03 13:27:14;;;;;;;;;48.60;40.00;;;;;16.91;19.40;98688.25;6265144;27;97438;-63
2022/03/03 13:30:18;;;;;;;;;51.00;40.00;;;;;16.91;19.10;98679.31;6248018;27;97880;-63
2022/03/03 13:33:21;;;;;;;;;36.60;32.00;;;;;16.77;18.21;98677.06;6227937;27;97449;-63
2022/03/03 13:36:27;;;;;;;;;25.60;23.00;;;;;16.71;17.52;98680.84;6253063;27;98359;-63
2022/03/03 13:39:33;;;;;;;;;21.20;20.00;;;;;16.63;17.25;98677.81;6262488;27;96419;-63
2022/03/03 13:42:39;;;;;;;;;23.60;18.60;;;;;16.60;16.85;98676.47;6261897;27;96712;-64
2022/03/03 13:45:49;;;;;;;;;24.00;20.60;;;;;16.58;16.79;98669.59;6262625;27;98133;-64
2022/03/03 13:48:52;;;;;;;;;22.00;20.00;;;;;16.51;16.60;98669.84;6262845;27;96390;-64
2022/03/03 13:52:11;;;;;;;;;23.40;19.80;;;;;16.28;16.69;98656.66;6262519;27;98021;-64
2022/03/03 13:55:16;;;;;;;;;22.75;19.25;;;;;16.28;16.41;98672.97;6244195;27;97278;-64
2022/03/03 13:58:26;;;;;;;;;22.60;19.20;;;;;16.02;16.98;98666.59;6262815;27;96365;-64
2022/03/03 14:01:30;;;;;;;;;22.00;19.25;;;;;15.84;17.12;98667.00;6265639;27;96608;-64
2022/03/03 14:04:36;;;;;;;;;22.00;19.50;;;;;15.74;17.34;98661.47;6264673;27;96646;-64
2022/03/03 14:07:40;;;;;;;;;26.00;23.60;;;;;15.66;17.41;98661.97;6260575;27;97978;-64
2022/03/03 14:10:52;;;;;;;;;21.40;19.80;;;;;15.54;17.57;98662.94;6242984;27;97333;-63
2022/03/03 14:13:59;;;;;;;;;20.40;18.40;;;;;15.49;17.86;98657.44;6261087;27;96940;-62
2022/03/03 14:17:03;;;;;;;;;24.00;20.40;;;;;15.59;17.88;98654.03;6276992;27;96441;-65